sensor_id;sensor_type;location;lat;lon;timestamp;P1;durP1;ratioP1;P2;durP2;ratioP2
79369;SDS011;68835;53.096;17.932;2023-08-21T00:00:23;26.80;;;10.70;;
79369;SDS011;68835;53.096;17.932;2023-08-21T00:13:00;28.40;;;10.70;;
79369;SDS011;68835;53.096;17.932;2023-08-21T00:15:27;36.10;;;14.80;;
79369;SDS011;68835;53.096;17.932;2023-08-21T00:17:54;39.70;;;15.20;;
79369;SDS011;68835;53.096;17.932;2023-08-21T00:20:22;39.20;;;15.30;;
79369;SDS011;68835;53.096;17.932;2023-08-21T00:22:49;34.40;;;14.20;;
79369;SDS011;68835;53.096;17.932;2023-08-21T00:25:17;37.00;;;14.70;;
79369;SDS011;68835;53.096;17.932;2023-08-21T00:27:44;37.10;;;14.30;;
79369;SDS011;68835;53.096;17.932;2023-08-21T00:30:12;40.60;;;15.30;;
79369;SDS011;68835;53.096;17.932;2023-08-21T00:32:42;32.10;;;14.60;;
79369;SDS011;68835;53.096;17.932;2023-08-21T00:35:10;34.90;;;13.20;;
79369;SDS011;68835;53.096;17.932;2023-08-21T00:37:37;34.30;;;12.90;;
79369;SDS011;68835;53.096;17.932;2023-08-21T00:40:05;33.20;;;14.60;;
79369;SDS011;68835;53.096;17.932;2023-08-21T00:42:33;29.20;;;12.70;;
79369;SDS011;68835;53.096;17.932;2023-08-21T00:45:01;36.40;;;15.10;;
79369;SDS011;68835;53.096;17.932;2023-08-21T00:47:30;34.10;;;13.60;;
79369;SDS011;68835;53.096;17.932;2023-08-21T00:49:57;35.90;;;13.60;;
79369;SDS011;68835;53.096;17.932;2023-08-21T00:52:26;32.40;;;12.30;;
79369;SDS011;68835;53.096;17.932;2023-08-21T00:54:54;35.90;;;13.70;;
79369;SDS011;68835;53.096;17.932;2023-08-21T00:57:22;53.60;;;14.60;;
79369;SDS011;68835;53.096;17.932;2023-08-21T00:59:50;41.30;;;13.50;;
79369;SDS011;68835;53.096;17.932;2023-08-21T01:02:17;31.10;;;13.70;;
79369;SDS011;68835;53.096;17.932;2023-08-21T01:04:46;31.00;;;13.40;;
79369;SDS011;68835;53.096;17.932;2023-08-21T01:07:14;34.90;;;13.00;;
79369;SDS011;68835;53.096;17.932;2023-08-21T01:15:17;33.20;;;13.90;;
79369;SDS011;68835;53.096;17.932;2023-08-21T01:17:45;33.50;;;13.90;;
79369;SDS011;68835;53.096;17.932;2023-08-21T01:20:14;34.60;;;13.30;;
79369;SDS011;68835;53.096;17.932;2023-08-21T01:22:43;40.00;;;14.50;;
79369;SDS011;68835;53.096;17.932;2023-08-21T01:25:13;43.30;;;15.40;;
79369;SDS011;68835;53.096;17.932;2023-08-21T01:27:43;40.10;;;14.80;;
79369;SDS011;68835;53.096;17.932;2023-08-21T01:30:13;39.70;;;15.10;;
79369;SDS011;68835;53.096;17.932;2023-08-21T01:32:48;41.20;;;16.90;;
79369;SDS011;68835;53.096;17.932;2023-08-21T01:35:26;37.20;;;16.20;;
79369;SDS011;68835;53.096;17.932;2023-08-21T01:37:55;33.60;;;14.10;;
79369;SDS011;68835;53.096;17.932;2023-08-21T01:40:23;47.40;;;15.80;;
79369;SDS011;68835;53.096;17.932;2023-08-21T01:42:54;37.60;;;13.40;;
79369;SDS011;68835;53.096;17.932;2023-08-21T01:45:22;37.10;;;15.20;;
79369;SDS011;68835;53.096;17.932;2023-08-21T01:47:51;32.00;;;13.90;;
79369;SDS011;68835;53.096;17.932;2023-08-21T01:50:18;31.70;;;13.40;;
79369;SDS011;68835;53.096;17.932;2023-08-21T01:52:46;31.10;;;13.90;;
79369;SDS011;68835;53.096;17.932;2023-08-21T01:55:13;36.80;;;13.40;;
79369;SDS011;68835;53.096;17.932;2023-08-21T01:57:41;39.90;;;14.10;;
79369;SDS011;68835;53.096;17.932;2023-08-21T02:00:09;32.30;;;13.00;;
79369;SDS011;68835;53.096;17.932;2023-08-21T02:02:45;32.00;;;12.70;;
79369;SDS011;68835;53.096;17.932;2023-08-21T02:05:12;35.70;;;14.30;;
79369;SDS011;68835;53.096;17.932;2023-08-21T02:07:40;28.20;;;12.30;;
79369;SDS011;68835;53.096;17.932;2023-08-21T02:10:07;35.60;;;13.00;;
79369;SDS011;68835;53.096;17.932;2023-08-21T02:12:35;34.60;;;13.20;;
79369;SDS011;68835;53.096;17.932;2023-08-21T02:15:02;30.20;;;12.20;;
79369;SDS011;68835;53.096;17.932;2023-08-21T02:17:33;31.00;;;12.10;;
79369;SDS011;68835;53.096;17.932;2023-08-21T02:20:00;31.20;;;13.20;;
79369;SDS011;68835;53.096;17.932;2023-08-21T02:22:28;32.30;;;12.90;;
79369;SDS011;68835;53.096;17.932;2023-08-21T02:24:55;34.10;;;12.10;;
79369;SDS011;68835;53.096;17.932;2023-08-21T02:27:23;32.40;;;12.00;;
79369;SDS011;68835;53.096;17.932;2023-08-21T02:29:50;29.00;;;11.80;;
79369;SDS011;68835;53.096;17.932;2023-08-21T02:32:17;30.60;;;12.20;;
79369;SDS011;68835;53.096;17.932;2023-08-21T02:34:45;32.40;;;11.60;;
79369;SDS011;68835;53.096;17.932;2023-08-21T02:37:16;28.60;;;11.60;;
79369;SDS011;68835;53.096;17.932;2023-08-21T02:39:43;30.60;;;11.60;;
79369;SDS011;68835;53.096;17.932;2023-08-21T02:42:11;32.10;;;12.80;;
79369;SDS011;68835;53.096;17.932;2023-08-21T02:44:38;26.30;;;10.10;;
79369;SDS011;68835;53.096;17.932;2023-08-21T02:47:06;28.00;;;10.80;;
79369;SDS011;68835;53.096;17.932;2023-08-21T02:49:33;26.40;;;11.10;;
79369;SDS011;68835;53.096;17.932;2023-08-21T02:52:01;32.40;;;11.60;;
79369;SDS011;68835;53.096;17.932;2023-08-21T02:56:55;29.40;;;9.30;;
79369;SDS011;68835;53.096;17.932;2023-08-21T02:59:23;25.50;;;10.40;;
79369;SDS011;68835;53.096;17.932;2023-08-21T03:01:51;29.80;;;10.80;;
79369;SDS011;68835;53.096;17.932;2023-08-21T03:11:40;20.90;;;7.60;;
79369;SDS011;68835;53.096;17.932;2023-08-21T03:14:07;24.90;;;9.60;;
79369;SDS011;68835;53.096;17.932;2023-08-21T03:16:35;26.20;;;9.10;;
79369;SDS011;68835;53.096;17.932;2023-08-21T03:19:02;24.00;;;8.90;;
79369;SDS011;68835;53.096;17.932;2023-08-21T03:21:31;25.00;;;9.00;;
79369;SDS011;68835;53.096;17.932;2023-08-21T03:23:58;27.10;;;9.30;;
79369;SDS011;68835;53.096;17.932;2023-08-21T03:26:26;22.20;;;8.50;;
79369;SDS011;68835;53.096;17.932;2023-08-21T03:28:54;24.50;;;8.10;;
79369;SDS011;68835;53.096;17.932;2023-08-21T03:31:22;21.60;;;8.50;;
79369;SDS011;68835;53.096;17.932;2023-08-21T03:33:49;25.70;;;8.80;;
79369;SDS011;68835;53.096;17.932;2023-08-21T03:36:18;28.80;;;9.00;;
79369;SDS011;68835;53.096;17.932;2023-08-21T03:38:46;20.20;;;8.20;;
79369;SDS011;68835;53.096;17.932;2023-08-21T03:41:14;19.50;;;8.20;;
79369;SDS011;68835;53.096;17.932;2023-08-21T03:43:42;20.50;;;8.40;;
79369;SDS011;68835;53.096;17.932;2023-08-21T03:46:10;28.10;;;8.80;;
79369;SDS011;68835;53.096;17.932;2023-08-21T03:48:37;30.40;;;9.60;;
79369;SDS011;68835;53.096;17.932;2023-08-21T03:51:05;22.30;;;9.20;;
79369;SDS011;68835;53.096;17.932;2023-08-21T03:53:32;24.80;;;9.30;;
79369;SDS011;68835;53.096;17.932;2023-08-21T03:56:00;23.30;;;8.90;;
79369;SDS011;68835;53.096;17.932;2023-08-21T03:58:28;15.70;;;8.00;;
79369;SDS011;68835;53.096;17.932;2023-08-21T04:00:55;25.20;;;8.80;;
79369;SDS011;68835;53.096;17.932;2023-08-21T04:03:24;19.60;;;8.70;;
79369;SDS011;68835;53.096;17.932;2023-08-21T04:05:53;18.90;;;7.40;;
79369;SDS011;68835;53.096;17.932;2023-08-21T04:08:23;20.60;;;8.40;;
79369;SDS011;68835;53.096;17.932;2023-08-21T04:10:50;25.90;;;9.70;;
79369;SDS011;68835;53.096;17.932;2023-08-21T04:13:19;19.10;;;7.30;;
79369;SDS011;68835;53.096;17.932;2023-08-21T04:15:48;29.40;;;8.30;;
79369;SDS011;68835;53.096;17.932;2023-08-21T04:18:16;21.50;;;8.60;;
79369;SDS011;68835;53.096;17.932;2023-08-21T04:20:43;17.80;;;8.20;;
79369;SDS011;68835;53.096;17.932;2023-08-21T04:23:11;18.90;;;8.10;;
79369;SDS011;68835;53.096;17.932;2023-08-21T04:28:05;22.10;;;8.90;;
79369;SDS011;68835;53.096;17.932;2023-08-21T04:30:34;22.70;;;7.70;;
79369;SDS011;68835;53.096;17.932;2023-08-21T04:33:02;24.00;;;7.80;;
79369;SDS011;68835;53.096;17.932;2023-08-21T04:35:30;22.90;;;8.30;;
79369;SDS011;68835;53.096;17.932;2023-08-21T04:38:03;18.40;;;7.50;;
79369;SDS011;68835;53.096;17.932;2023-08-21T04:40:30;23.80;;;8.60;;
79369;SDS011;68835;53.096;17.932;2023-08-21T04:42:58;22.20;;;7.70;;
79369;SDS011;68835;53.096;17.932;2023-08-21T04:45:26;27.60;;;8.50;;
79369;SDS011;68835;53.096;17.932;2023-08-21T04:47:53;23.30;;;8.20;;
79369;SDS011;68835;53.096;17.932;2023-08-21T04:50:22;21.20;;;7.90;;
79369;SDS011;68835;53.096;17.932;2023-08-21T04:52:50;21.90;;;8.30;;
79369;SDS011;68835;53.096;17.932;2023-08-21T04:55:17;18.90;;;8.10;;
79369;SDS011;68835;53.096;17.932;2023-08-21T04:57:47;18.60;;;7.80;;
79369;SDS011;68835;53.096;17.932;2023-08-21T05:00:15;22.90;;;8.80;;
79369;SDS011;68835;53.096;17.932;2023-08-21T05:02:43;24.60;;;8.60;;
79369;SDS011;68835;53.096;17.932;2023-08-21T05:05:12;27.20;;;9.40;;
79369;SDS011;68835;53.096;17.932;2023-08-21T05:07:40;21.50;;;7.40;;
79369;SDS011;68835;53.096;17.932;2023-08-21T05:10:08;19.80;;;8.10;;
79369;SDS011;68835;53.096;17.932;2023-08-21T05:12:36;24.00;;;8.50;;
79369;SDS011;68835;53.096;17.932;2023-08-21T05:15:03;20.20;;;7.70;;
79369;SDS011;68835;53.096;17.932;2023-08-21T05:17:31;20.10;;;8.20;;
79369;SDS011;68835;53.096;17.932;2023-08-21T05:19:59;21.20;;;6.90;;
79369;SDS011;68835;53.096;17.932;2023-08-21T05:22:26;21.80;;;8.10;;
79369;SDS011;68835;53.096;17.932;2023-08-21T05:24:54;14.70;;;5.80;;
79369;SDS011;68835;53.096;17.932;2023-08-21T05:27:22;15.40;;;6.90;;
79369;SDS011;68835;53.096;17.932;2023-08-21T05:29:49;19.80;;;7.80;;
79369;SDS011;68835;53.096;17.932;2023-08-21T05:32:18;22.50;;;9.30;;
79369;SDS011;68835;53.096;17.932;2023-08-21T05:34:45;24.20;;;8.00;;
79369;SDS011;68835;53.096;17.932;2023-08-21T05:37:13;17.60;;;8.40;;
79369;SDS011;68835;53.096;17.932;2023-08-21T05:39:41;21.10;;;7.60;;
79369;SDS011;68835;53.096;17.932;2023-08-21T05:42:08;16.90;;;6.90;;
79369;SDS011;68835;53.096;17.932;2023-08-21T05:44:37;21.30;;;7.10;;
79369;SDS011;68835;53.096;17.932;2023-08-21T05:47:04;20.80;;;7.70;;
79369;SDS011;68835;53.096;17.932;2023-08-21T05:49:31;18.10;;;7.00;;
79369;SDS011;68835;53.096;17.932;2023-08-21T05:51:59;18.00;;;7.50;;
79369;SDS011;68835;53.096;17.932;2023-08-21T05:54:26;15.40;;;6.60;;
79369;SDS011;68835;53.096;17.932;2023-08-21T05:56:54;16.10;;;7.50;;
79369;SDS011;68835;53.096;17.932;2023-08-21T05:59:31;10.90;;;5.20;;
79369;SDS011;68835;53.096;17.932;2023-08-21T06:02:01;14.80;;;6.00;;
79369;SDS011;68835;53.096;17.932;2023-08-21T06:04:28;18.50;;;7.90;;
79369;SDS011;68835;53.096;17.932;2023-08-21T06:06:59;16.30;;;5.80;;
79369;SDS011;68835;53.096;17.932;2023-08-21T06:09:27;12.80;;;4.90;;
79369;SDS011;68835;53.096;17.932;2023-08-21T06:11:56;18.10;;;6.90;;
79369;SDS011;68835;53.096;17.932;2023-08-21T06:14:25;14.60;;;6.20;;
79369;SDS011;68835;53.096;17.932;2023-08-21T06:17:01;15.10;;;7.50;;
79369;SDS011;68835;53.096;17.932;2023-08-21T06:19:29;16.30;;;6.10;;
79369;SDS011;68835;53.096;17.932;2023-08-21T06:21:57;14.70;;;6.50;;
79369;SDS011;68835;53.096;17.932;2023-08-21T06:24:26;14.80;;;5.70;;
79369;SDS011;68835;53.096;17.932;2023-08-21T06:26:58;11.60;;;5.00;;
79369;SDS011;68835;53.096;17.932;2023-08-21T06:29:26;10.20;;;4.80;;
79369;SDS011;68835;53.096;17.932;2023-08-21T06:31:55;11.50;;;5.60;;
79369;SDS011;68835;53.096;17.932;2023-08-21T06:34:23;16.00;;;5.80;;
79369;SDS011;68835;53.096;17.932;2023-08-21T06:36:51;12.10;;;5.10;;
79369;SDS011;68835;53.096;17.932;2023-08-21T06:39:18;10.10;;;4.60;;
79369;SDS011;68835;53.096;17.932;2023-08-21T06:41:46;16.40;;;5.60;;
79369;SDS011;68835;53.096;17.932;2023-08-21T06:44:18;12.10;;;4.80;;
79369;SDS011;68835;53.096;17.932;2023-08-21T06:46:46;10.30;;;5.20;;
79369;SDS011;68835;53.096;17.932;2023-08-21T06:49:14;12.50;;;6.00;;
79369;SDS011;68835;53.096;17.932;2023-08-21T06:51:41;14.10;;;4.90;;
79369;SDS011;68835;53.096;17.932;2023-08-21T06:54:09;13.50;;;5.40;;
79369;SDS011;68835;53.096;17.932;2023-08-21T06:56:36;14.00;;;5.40;;
79369;SDS011;68835;53.096;17.932;2023-08-21T06:59:04;18.00;;;7.20;;
79369;SDS011;68835;53.096;17.932;2023-08-21T07:01:31;13.30;;;5.50;;
79369;SDS011;68835;53.096;17.932;2023-08-21T07:03:59;11.70;;;5.00;;
79369;SDS011;68835;53.096;17.932;2023-08-21T07:06:29;14.10;;;5.20;;
79369;SDS011;68835;53.096;17.932;2023-08-21T07:08:57;11.40;;;4.00;;
79369;SDS011;68835;53.096;17.932;2023-08-21T07:11:25;11.40;;;4.80;;
79369;SDS011;68835;53.096;17.932;2023-08-21T07:13:52;8.30;;;4.30;;
79369;SDS011;68835;53.096;17.932;2023-08-21T07:16:20;8.30;;;4.40;;
79369;SDS011;68835;53.096;17.932;2023-08-21T07:18:47;9.00;;;4.60;;
79369;SDS011;68835;53.096;17.932;2023-08-21T07:21:15;10.80;;;4.30;;
79369;SDS011;68835;53.096;17.932;2023-08-21T07:23:43;10.70;;;4.30;;
79369;SDS011;68835;53.096;17.932;2023-08-21T07:26:10;7.60;;;3.20;;
79369;SDS011;68835;53.096;17.932;2023-08-21T07:28:38;4.90;;;2.80;;
79369;SDS011;68835;53.096;17.932;2023-08-21T07:31:08;10.50;;;3.40;;
79369;SDS011;68835;53.096;17.932;2023-08-21T07:33:35;4.40;;;2.80;;
79369;SDS011;68835;53.096;17.932;2023-08-21T07:36:04;6.70;;;3.30;;
79369;SDS011;68835;53.096;17.932;2023-08-21T07:38:32;14.10;;;4.10;;
79369;SDS011;68835;53.096;17.932;2023-08-21T07:41:07;5.40;;;2.80;;
79369;SDS011;68835;53.096;17.932;2023-08-21T07:43:37;10.70;;;4.00;;
79369;SDS011;68835;53.096;17.932;2023-08-21T07:46:07;12.70;;;4.20;;
79369;SDS011;68835;53.096;17.932;2023-08-21T07:48:39;7.70;;;3.90;;
79369;SDS011;68835;53.096;17.932;2023-08-21T07:51:07;9.60;;;3.80;;
79369;SDS011;68835;53.096;17.932;2023-08-21T07:53:34;13.10;;;3.90;;
79369;SDS011;68835;53.096;17.932;2023-08-21T07:56:02;10.20;;;2.60;;
79369;SDS011;68835;53.096;17.932;2023-08-21T07:58:31;4.00;;;2.30;;
79369;SDS011;68835;53.096;17.932;2023-08-21T08:00:58;7.00;;;2.70;;
79369;SDS011;68835;53.096;17.932;2023-08-21T08:03:27;4.30;;;2.80;;
79369;SDS011;68835;53.096;17.932;2023-08-21T08:05:55;9.30;;;3.20;;
79369;SDS011;68835;53.096;17.932;2023-08-21T08:08:23;3.00;;;2.10;;
79369;SDS011;68835;53.096;17.932;2023-08-21T08:10:50;10.40;;;3.10;;
79369;SDS011;68835;53.096;17.932;2023-08-21T08:13:17;8.70;;;4.00;;
79369;SDS011;68835;53.096;17.932;2023-08-21T08:15:45;6.00;;;3.10;;
79369;SDS011;68835;53.096;17.932;2023-08-21T08:18:12;6.20;;;2.80;;
79369;SDS011;68835;53.096;17.932;2023-08-21T08:20:40;14.00;;;4.10;;
79369;SDS011;68835;53.096;17.932;2023-08-21T08:23:08;6.60;;;2.90;;
79369;SDS011;68835;53.096;17.932;2023-08-21T08:25:35;10.70;;;3.10;;
79369;SDS011;68835;53.096;17.932;2023-08-21T08:28:03;8.80;;;3.00;;
79369;SDS011;68835;53.096;17.932;2023-08-21T08:30:30;6.20;;;3.40;;
79369;SDS011;68835;53.096;17.932;2023-08-21T08:32:57;5.90;;;3.40;;
79369;SDS011;68835;53.096;17.932;2023-08-21T08:35:25;8.60;;;3.10;;
79369;SDS011;68835;53.096;17.932;2023-08-21T08:37:52;6.00;;;3.30;;
79369;SDS011;68835;53.096;17.932;2023-08-21T08:40:19;11.30;;;3.90;;
79369;SDS011;68835;53.096;17.932;2023-08-21T08:42:47;5.00;;;2.50;;
79369;SDS011;68835;53.096;17.932;2023-08-21T08:45:14;5.40;;;3.10;;
79369;SDS011;68835;53.096;17.932;2023-08-21T08:47:53;4.70;;;2.60;;
79369;SDS011;68835;53.096;17.932;2023-08-21T08:50:21;9.60;;;3.20;;
79369;SDS011;68835;53.096;17.932;2023-08-21T08:52:50;5.80;;;2.90;;
79369;SDS011;68835;53.096;17.932;2023-08-21T08:55:17;9.30;;;3.90;;
79369;SDS011;68835;53.096;17.932;2023-08-21T08:57:45;11.70;;;3.20;;
79369;SDS011;68835;53.096;17.932;2023-08-21T09:00:12;9.10;;;3.50;;
79369;SDS011;68835;53.096;17.932;2023-08-21T09:02:40;4.60;;;2.40;;
79369;SDS011;68835;53.096;17.932;2023-08-21T09:05:08;5.80;;;2.70;;
79369;SDS011;68835;53.096;17.932;2023-08-21T09:07:37;5.70;;;3.00;;
79369;SDS011;68835;53.096;17.932;2023-08-21T09:10:04;6.40;;;3.50;;
79369;SDS011;68835;53.096;17.932;2023-08-21T09:12:39;3.30;;;2.00;;
79369;SDS011;68835;53.096;17.932;2023-08-21T09:15:08;7.40;;;3.30;;
79369;SDS011;68835;53.096;17.932;2023-08-21T09:17:36;6.60;;;3.00;;
79369;SDS011;68835;53.096;17.932;2023-08-21T09:20:04;6.00;;;2.60;;
79369;SDS011;68835;53.096;17.932;2023-08-21T09:22:32;5.50;;;2.60;;
79369;SDS011;68835;53.096;17.932;2023-08-21T09:25:01;7.30;;;3.30;;
79369;SDS011;68835;53.096;17.932;2023-08-21T09:30:05;4.30;;;2.50;;
79369;SDS011;68835;53.096;17.932;2023-08-21T09:35:39;6.20;;;3.00;;
79369;SDS011;68835;53.096;17.932;2023-08-21T09:38:09;5.40;;;2.50;;
79369;SDS011;68835;53.096;17.932;2023-08-21T09:40:40;6.00;;;2.40;;
79369;SDS011;68835;53.096;17.932;2023-08-21T09:43:09;5.60;;;2.30;;
79369;SDS011;68835;53.096;17.932;2023-08-21T09:45:38;4.90;;;2.20;;
79369;SDS011;68835;53.096;17.932;2023-08-21T09:48:06;5.20;;;3.10;;
79369;SDS011;68835;53.096;17.932;2023-08-21T09:50:35;6.80;;;3.50;;
79369;SDS011;68835;53.096;17.932;2023-08-21T09:53:02;5.40;;;2.50;;
79369;SDS011;68835;53.096;17.932;2023-08-21T09:55:31;3.90;;;2.70;;
79369;SDS011;68835;53.096;17.932;2023-08-21T09:58:00;5.10;;;2.80;;
79369;SDS011;68835;53.096;17.932;2023-08-21T10:00:29;3.80;;;2.10;;
79369;SDS011;68835;53.096;17.932;2023-08-21T10:03:00;4.90;;;2.10;;
79369;SDS011;68835;53.096;17.932;2023-08-21T10:05:32;5.00;;;2.00;;
79369;SDS011;68835;53.096;17.932;2023-08-21T10:08:02;4.10;;;1.90;;
79369;SDS011;68835;53.096;17.932;2023-08-21T10:10:32;7.20;;;2.50;;
79369;SDS011;68835;53.096;17.932;2023-08-21T10:13:01;6.10;;;2.50;;
79369;SDS011;68835;53.096;17.932;2023-08-21T10:15:31;6.00;;;2.10;;
79369;SDS011;68835;53.096;17.932;2023-08-21T10:20:47;3.30;;;2.20;;
79369;SDS011;68835;53.096;17.932;2023-08-21T10:23:26;6.50;;;2.40;;
79369;SDS011;68835;53.096;17.932;2023-08-21T10:25:55;2.90;;;2.10;;
79369;SDS011;68835;53.096;17.932;2023-08-21T10:28:40;4.60;;;2.70;;
79369;SDS011;68835;53.096;17.932;2023-08-21T10:31:33;3.80;;;2.20;;
79369;SDS011;68835;53.096;17.932;2023-08-21T10:34:11;6.40;;;2.30;;
79369;SDS011;68835;53.096;17.932;2023-08-21T10:39:53;3.40;;;2.00;;
79369;SDS011;68835;53.096;17.932;2023-08-21T10:42:07;2.40;;;1.40;;
79369;SDS011;68835;53.096;17.932;2023-08-21T10:49:47;4.80;;;2.10;;
79369;SDS011;68835;53.096;17.932;2023-08-21T10:52:27;6.80;;;2.90;;
79369;SDS011;68835;53.096;17.932;2023-08-21T10:55:06;4.90;;;2.20;;
79369;SDS011;68835;53.096;17.932;2023-08-21T10:57:36;4.80;;;2.10;;
79369;SDS011;68835;53.096;17.932;2023-08-21T11:02:42;5.00;;;2.40;;
79369;SDS011;68835;53.096;17.932;2023-08-21T11:05:13;4.70;;;2.70;;
79369;SDS011;68835;53.096;17.932;2023-08-21T11:07:43;6.50;;;2.60;;
79369;SDS011;68835;53.096;17.932;2023-08-21T11:10:15;6.50;;;2.50;;
79369;SDS011;68835;53.096;17.932;2023-08-21T11:15:16;4.50;;;2.60;;
79369;SDS011;68835;53.096;17.932;2023-08-21T11:17:51;7.00;;;3.40;;
79369;SDS011;68835;53.096;17.932;2023-08-21T11:20:27;5.30;;;2.70;;
79369;SDS011;68835;53.096;17.932;2023-08-21T11:23:02;5.30;;;3.10;;
79369;SDS011;68835;53.096;17.932;2023-08-21T11:25:34;5.10;;;2.40;;
79369;SDS011;68835;53.096;17.932;2023-08-21T11:28:06;6.20;;;2.60;;
79369;SDS011;68835;53.096;17.932;2023-08-21T11:30:35;5.70;;;2.50;;
79369;SDS011;68835;53.096;17.932;2023-08-21T11:35:34;5.10;;;2.70;;
79369;SDS011;68835;53.096;17.932;2023-08-21T11:38:02;6.00;;;2.50;;
79369;SDS011;68835;53.096;17.932;2023-08-21T11:40:34;4.20;;;2.90;;
79369;SDS011;68835;53.096;17.932;2023-08-21T11:43:02;3.70;;;2.40;;
79369;SDS011;68835;53.096;17.932;2023-08-21T11:45:32;5.40;;;2.70;;
79369;SDS011;68835;53.096;17.932;2023-08-21T11:48:00;4.10;;;2.30;;
79369;SDS011;68835;53.096;17.932;2023-08-21T11:50:27;5.40;;;2.60;;
79369;SDS011;68835;53.096;17.932;2023-08-21T11:52:56;4.40;;;2.40;;
79369;SDS011;68835;53.096;17.932;2023-08-21T11:55:23;4.60;;;2.00;;
79369;SDS011;68835;53.096;17.932;2023-08-21T11:57:51;3.40;;;1.90;;
79369;SDS011;68835;53.096;17.932;2023-08-21T12:00:26;5.10;;;2.30;;
79369;SDS011;68835;53.096;17.932;2023-08-21T12:02:56;9.20;;;3.70;;
79369;SDS011;68835;53.096;17.932;2023-08-21T12:05:26;5.90;;;2.00;;
79369;SDS011;68835;53.096;17.932;2023-08-21T12:07:54;9.60;;;2.90;;
79369;SDS011;68835;53.096;17.932;2023-08-21T12:10:23;7.60;;;2.70;;
79369;SDS011;68835;53.096;17.932;2023-08-21T12:12:55;8.50;;;2.70;;
79369;SDS011;68835;53.096;17.932;2023-08-21T12:15:23;3.50;;;2.20;;
79369;SDS011;68835;53.096;17.932;2023-08-21T12:17:51;4.50;;;2.50;;
79369;SDS011;68835;53.096;17.932;2023-08-21T12:20:18;2.90;;;2.30;;
79369;SDS011;68835;53.096;17.932;2023-08-21T12:22:46;5.60;;;2.90;;
79369;SDS011;68835;53.096;17.932;2023-08-21T12:25:13;7.30;;;2.90;;
79369;SDS011;68835;53.096;17.932;2023-08-21T12:27:41;4.00;;;2.40;;
79369;SDS011;68835;53.096;17.932;2023-08-21T12:30:08;4.10;;;2.50;;
79369;SDS011;68835;53.096;17.932;2023-08-21T12:32:36;6.80;;;3.00;;
79369;SDS011;68835;53.096;17.932;2023-08-21T12:35:03;4.90;;;2.30;;
79369;SDS011;68835;53.096;17.932;2023-08-21T12:37:31;4.90;;;2.90;;
79369;SDS011;68835;53.096;17.932;2023-08-21T12:39:58;10.80;;;3.80;;
79369;SDS011;68835;53.096;17.932;2023-08-21T12:42:26;4.90;;;2.40;;
79369;SDS011;68835;53.096;17.932;2023-08-21T12:44:53;4.00;;;2.70;;
79369;SDS011;68835;53.096;17.932;2023-08-21T12:47:21;8.70;;;3.00;;
79369;SDS011;68835;53.096;17.932;2023-08-21T12:49:48;8.30;;;2.90;;
79369;SDS011;68835;53.096;17.932;2023-08-21T12:52:16;4.20;;;2.50;;
79369;SDS011;68835;53.096;17.932;2023-08-21T12:54:43;8.90;;;3.40;;
79369;SDS011;68835;53.096;17.932;2023-08-21T12:57:11;8.40;;;3.40;;
79369;SDS011;68835;53.096;17.932;2023-08-21T12:59:38;10.40;;;2.90;;
79369;SDS011;68835;53.096;17.932;2023-08-21T13:02:06;4.40;;;2.40;;
79369;SDS011;68835;53.096;17.932;2023-08-21T13:04:34;6.60;;;2.80;;
79369;SDS011;68835;53.096;17.932;2023-08-21T13:07:02;6.00;;;4.20;;
79369;SDS011;68835;53.096;17.932;2023-08-21T13:09:30;6.40;;;2.80;;
79369;SDS011;68835;53.096;17.932;2023-08-21T13:11:58;7.00;;;3.20;;
79369;SDS011;68835;53.096;17.932;2023-08-21T13:14:25;4.40;;;2.70;;
79369;SDS011;68835;53.096;17.932;2023-08-21T13:16:53;6.60;;;2.90;;
79369;SDS011;68835;53.096;17.932;2023-08-21T13:19:21;10.20;;;3.80;;
79369;SDS011;68835;53.096;17.932;2023-08-21T13:21:48;6.20;;;3.20;;
79369;SDS011;68835;53.096;17.932;2023-08-21T13:24:16;8.30;;;3.30;;
79369;SDS011;68835;53.096;17.932;2023-08-21T13:26:43;9.60;;;3.70;;
79369;SDS011;68835;53.096;17.932;2023-08-21T13:29:11;4.50;;;3.00;;
79369;SDS011;68835;53.096;17.932;2023-08-21T13:31:38;7.20;;;3.50;;
79369;SDS011;68835;53.096;17.932;2023-08-21T13:34:05;8.80;;;3.10;;
79369;SDS011;68835;53.096;17.932;2023-08-21T13:36:33;11.10;;;3.30;;
79369;SDS011;68835;53.096;17.932;2023-08-21T13:39:00;6.00;;;3.00;;
79369;SDS011;68835;53.096;17.932;2023-08-21T13:41:28;7.00;;;2.40;;
79369;SDS011;68835;53.096;17.932;2023-08-21T13:43:55;7.10;;;2.70;;
79369;SDS011;68835;53.096;17.932;2023-08-21T13:46:23;5.30;;;2.60;;
79369;SDS011;68835;53.096;17.932;2023-08-21T13:48:51;7.40;;;2.90;;
79369;SDS011;68835;53.096;17.932;2023-08-21T13:51:18;4.20;;;2.60;;
79369;SDS011;68835;53.096;17.932;2023-08-21T13:53:45;5.70;;;3.40;;
79369;SDS011;68835;53.096;17.932;2023-08-21T13:56:13;8.80;;;3.10;;
79369;SDS011;68835;53.096;17.932;2023-08-21T13:58:40;7.00;;;3.10;;
79369;SDS011;68835;53.096;17.932;2023-08-21T14:01:08;5.70;;;3.00;;
79369;SDS011;68835;53.096;17.932;2023-08-21T14:03:36;5.20;;;2.80;;
79369;SDS011;68835;53.096;17.932;2023-08-21T14:06:03;8.20;;;2.70;;
79369;SDS011;68835;53.096;17.932;2023-08-21T14:08:31;5.20;;;2.70;;
79369;SDS011;68835;53.096;17.932;2023-08-21T14:10:58;3.40;;;2.20;;
79369;SDS011;68835;53.096;17.932;2023-08-21T14:13:25;8.70;;;3.60;;
79369;SDS011;68835;53.096;17.932;2023-08-21T14:15:53;5.20;;;2.30;;
79369;SDS011;68835;53.096;17.932;2023-08-21T14:18:20;6.10;;;2.80;;
79369;SDS011;68835;53.096;17.932;2023-08-21T14:20:48;7.60;;;3.00;;
79369;SDS011;68835;53.096;17.932;2023-08-21T14:23:15;6.00;;;2.90;;
79369;SDS011;68835;53.096;17.932;2023-08-21T14:25:43;6.70;;;3.10;;
79369;SDS011;68835;53.096;17.932;2023-08-21T14:28:10;4.30;;;2.70;;
79369;SDS011;68835;53.096;17.932;2023-08-21T14:30:38;6.10;;;3.70;;
79369;SDS011;68835;53.096;17.932;2023-08-21T14:33:05;7.50;;;3.10;;
79369;SDS011;68835;53.096;17.932;2023-08-21T14:35:33;4.90;;;2.80;;
79369;SDS011;68835;53.096;17.932;2023-08-21T14:38:00;9.00;;;3.10;;
79369;SDS011;68835;53.096;17.932;2023-08-21T14:40:27;5.30;;;2.80;;
79369;SDS011;68835;53.096;17.932;2023-08-21T14:42:55;7.10;;;3.00;;
79369;SDS011;68835;53.096;17.932;2023-08-21T14:45:22;6.30;;;3.90;;
79369;SDS011;68835;53.096;17.932;2023-08-21T14:47:50;5.10;;;2.70;;
79369;SDS011;68835;53.096;17.932;2023-08-21T14:50:17;5.90;;;3.10;;
79369;SDS011;68835;53.096;17.932;2023-08-21T14:52:45;4.90;;;2.60;;
79369;SDS011;68835;53.096;17.932;2023-08-21T14:55:15;7.60;;;3.30;;
79369;SDS011;68835;53.096;17.932;2023-08-21T14:57:43;4.50;;;2.80;;
79369;SDS011;68835;53.096;17.932;2023-08-21T15:00:11;7.20;;;2.50;;
79369;SDS011;68835;53.096;17.932;2023-08-21T15:02:39;9.40;;;3.80;;
79369;SDS011;68835;53.096;17.932;2023-08-21T15:05:07;4.30;;;2.50;;
79369;SDS011;68835;53.096;17.932;2023-08-21T15:07:34;6.10;;;3.20;;
79369;SDS011;68835;53.096;17.932;2023-08-21T15:10:02;4.40;;;2.80;;
79369;SDS011;68835;53.096;17.932;2023-08-21T15:12:30;7.40;;;3.10;;
79369;SDS011;68835;53.096;17.932;2023-08-21T15:14:57;4.70;;;3.00;;
79369;SDS011;68835;53.096;17.932;2023-08-21T15:17:24;6.70;;;2.90;;
79369;SDS011;68835;53.096;17.932;2023-08-21T15:19:51;10.30;;;3.30;;
79369;SDS011;68835;53.096;17.932;2023-08-21T15:22:20;5.70;;;4.00;;
79369;SDS011;68835;53.096;17.932;2023-08-21T15:24:48;5.40;;;2.90;;